Time;durP1;ratioP1;P1;durP2;ratioP2;P2;SDS_P1;SDS_P2;PMS_P1;PMS_P2;Temp;Humidity;BMP_temperature;BMP_pressure;BME280_temperature;BME280_humidity;BME280_pressure;Samples;Min_cycle;Max_cycle;Signal;HPM_P1;HPM_P2
2023/03/13 00:00:21;;;;;;;12.00;3.40;;;9.20;99.90;;;;;;477046;247;28357;-79
2023/03/13 00:02:23;;;;;;;11.80;3.27;;;9.20;99.90;;;;;;477056;247;27855;-79
2023/03/13 00:04:24;;;;;;;16.60;3.27;;;9.30;99.90;;;;;;477061;247;27823;-79
2023/03/13 00:06:25;;;;;;;12.17;3.30;;;9.20;99.90;;;;;;477005;247;27881;-79
2023/03/13 00:08:26;;;;;;;11.00;2.90;;;9.20;99.90;;;;;;477094;247;27874;-79
2023/03/13 00:10:28;;;;;;;8.57;2.97;;;9.20;99.90;;;;;;477045;247;28031;-79
2023/03/13 00:12:29;;;;;;;13.03;3.00;;;9.20;99.90;;;;;;476912;247;27560;-79
2023/03/13 00:14:30;;;;;;;9.93;2.97;;;9.10;99.90;;;;;;477011;247;27926;-79
2023/03/13 00:16:33;;;;;;;11.90;2.90;;;9.20;99.90;;;;;;477034;247;27681;-79
2023/03/13 00:18:33;;;;;;;11.40;2.90;;;9.20;99.90;;;;;;476995;247;27939;-79
2023/03/13 00:20:34;;;;;;;6.40;2.93;;;9.30;99.90;;;;;;476988;247;27754;-79
2023/03/13 00:22:35;;;;;;;17.00;4.00;;;9.20;99.90;;;;;;477037;247;28157;-79
2023/03/13 00:24:36;;;;;;;13.53;2.97;;;9.20;99.90;;;;;;477007;246;28317;-78
2023/03/13 00:26:38;;;;;;;9.60;2.70;;;9.20;99.90;;;;;;477048;247;28206;-79
2023/03/13 00:28:39;;;;;;;11.70;2.83;;;9.30;99.90;;;;;;477032;247;28127;-79
2023/03/13 00:30:40;;;;;;;11.20;3.10;;;9.30;99.90;;;;;;477033;247;27686;-79
2023/03/13 00:32:41;;;;;;;11.80;2.53;;;9.30;99.90;;;;;;476867;249;27509;-79
2023/03/13 00:34:43;;;;;;;17.43;3.30;;;9.30;99.90;;;;;;476967;249;27793;-79
2023/03/13 00:36:44;;;;;;;10.43;2.40;;;9.40;99.90;;;;;;477075;247;27878;-80
2023/03/13 00:38:45;;;;;;;11.70;2.87;;;9.40;99.90;;;;;;477061;247;27869;-79
2023/03/13 00:40:46;;;;;;;8.23;2.67;;;9.30;99.90;;;;;;477019;247;27699;-80
2023/03/13 00:42:48;;;;;;;10.50;2.97;;;9.30;99.90;;;;;;477006;247;27671;-79
2023/03/13 00:44:49;;;;;;;8.90;2.70;;;9.40;99.90;;;;;;477019;247;27784;-79
2023/03/13 00:46:50;;;;;;;8.80;3.17;;;9.50;99.90;;;;;;477059;247;27710;-79
2023/03/13 00:48:51;;;;;;;10.43;2.50;;;9.50;99.90;;;;;;477038;247;27832;-79
2023/03/13 00:50:53;;;;;;;5.30;2.00;;;9.40;99.90;;;;;;477023;247;28048;-80
2023/03/13 00:52:54;;;;;;;13.23;2.77;;;9.40;99.90;;;;;;476989;247;29122;-79
2023/03/13 00:54:55;;;;;;;16.07;2.50;;;9.50;99.90;;;;;;477037;247;28270;-80
2023/03/13 00:56:56;;;;;;;7.37;2.43;;;9.50;99.90;;;;;;476930;249;27817;-81
2023/03/13 00:58:58;;;;;;;13.33;2.63;;;9.50;99.90;;;;;;477052;247;27767;-79
2023/03/13 01:00:59;;;;;;;7.27;2.87;;;9.50;99.90;;;;;;477044;247;27694;-79
2023/03/13 01:03:00;;;;;;;4.90;2.07;;;9.50;99.90;;;;;;477052;247;27879;-79
2023/03/13 01:05:01;;;;;;;5.57;2.30;;;9.50;99.90;;;;;;477035;247;27745;-79
2023/03/13 01:07:03;;;;;;;12.30;2.80;;;9.40;99.90;;;;;;476923;249;27582;-80
2023/03/13 01:09:04;;;;;;;8.47;2.13;;;9.50;99.90;;;;;;477046;247;27717;-79
2023/03/13 01:11:05;;;;;;;6.70;2.63;;;9.40;99.90;;;;;;476979;249;27976;-79
2023/03/13 01:13:06;;;;;;;9.10;2.27;;;9.50;99.90;;;;;;476928;249;27767;-79
2023/03/13 01:15:09;;;;;;;7.67;1.87;;;9.50;99.90;;;;;;477074;247;27542;-79
2023/03/13 01:17:09;;;;;;;4.70;2.40;;;9.50;99.90;;;;;;477021;247;27694;-79
2023/03/13 01:19:10;;;;;;;11.20;2.47;;;9.50;99.90;;;;;;477052;247;27898;-80
2023/03/13 01:21:11;;;;;;;5.10;2.10;;;9.60;99.90;;;;;;476800;249;27821;-79
2023/03/13 01:23:14;;;;;;;9.23;2.87;;;9.60;99.90;;;;;;476912;249;28666;-79
2023/03/13 01:25:15;;;;;;;6.67;2.30;;;9.70;99.90;;;;;;477009;247;28291;-80
2023/03/13 01:27:15;;;;;;;13.67;2.50;;;9.60;99.90;;;;;;477068;247;28342;-80
2023/03/13 01:29:16;;;;;;;5.50;2.20;;;9.60;99.90;;;;;;477061;247;28138;-79
2023/03/13 01:31:18;;;;;;;8.00;2.20;;;9.70;99.90;;;;;;477033;247;27915;-79
2023/03/13 01:33:19;;;;;;;5.23;2.03;;;9.70;99.90;;;;;;477008;247;27288;-79
2023/03/13 01:35:20;;;;;;;6.20;2.20;;;9.70;99.90;;;;;;476918;249;27872;-79
2023/03/13 01:37:21;;;;;;;8.17;2.37;;;9.60;99.90;;;;;;477093;247;27432;-79
2023/03/13 01:39:23;;;;;;;6.00;2.00;;;9.60;99.90;;;;;;477089;247;27755;-79
2023/03/13 01:41:24;;;;;;;11.43;2.13;;;9.60;99.90;;;;;;477091;247;27476;-79
2023/03/13 01:43:25;;;;;;;8.43;2.37;;;9.60;99.90;;;;;;477051;247;27788;-79
2023/03/13 01:45:26;;;;;;;16.63;2.73;;;9.60;99.90;;;;;;477074;247;27813;-79
2023/03/13 01:47:28;;;;;;;9.73;2.37;;;9.60;99.90;;;;;;477102;247;27932;-79
2023/03/13 01:49:29;;;;;;;9.80;2.27;;;9.50;99.90;;;;;;477021;247;27774;-79
2023/03/13 01:51:30;;;;;;;6.27;2.20;;;9.40;99.90;;;;;;477051;247;27681;-80
2023/03/13 01:53:31;;;;;;;7.33;2.07;;;9.40;99.90;;;;;;476996;247;27834;-79
2023/03/13 01:55:33;;;;;;;8.27;2.20;;;9.30;99.90;;;;;;477045;247;27853;-79
2023/03/13 01:57:34;;;;;;;6.23;2.20;;;9.20;99.90;;;;;;477069;247;28330;-79
2023/03/13 01:59:35;;;;;;;7.93;2.17;;;9.20;99.90;;;;;;477066;247;28283;-79
2023/03/13 02:01:37;;;;;;;5.07;2.30;;;9.20;99.90;;;;;;477076;247;28170;-79
2023/03/13 02:03:38;;;;;;;9.10;2.23;;;9.20;99.90;;;;;;477004;247;27994;-79
2023/03/13 02:05:39;;;;;;;3.53;2.00;;;9.20;99.90;;;;;;477013;247;28327;-79
2023/03/13 02:07:40;;;;;;;8.07;2.10;;;9.20;99.90;;;;;;477079;247;27906;-78
2023/03/13 02:09:41;;;;;;;4.77;2.37;;;9.20;99.90;;;;;;477087;247;27593;-78
2023/03/13 02:11:43;;;;;;;6.67;2.00;;;9.20;99.90;;;;;;477020;247;27720;-79
2023/03/13 02:13:44;;;;;;;6.90;2.53;;;9.10;99.90;;;;;;476888;249;27722;-79
2023/03/13 02:15:45;;;;;;;10.30;2.77;;;9.10;99.90;;;;;;477017;247;27457;-78
2023/03/13 02:17:46;;;;;;;6.90;2.27;;;9.10;99.90;;;;;;477057;247;27795;-78
2023/03/13 02:19:48;;;;;;;5.90;2.00;;;9.10;99.90;;;;;;477054;247;27923;-78
2023/03/13 02:21:49;;;;;;;3.53;1.90;;;9.10;99.90;;;;;;477048;247;27938;-79
2023/03/13 02:23:50;;;;;;;6.37;2.60;;;9.10;99.90;;;;;;477001;249;27967;-79
2023/03/13 02:25:52;;;;;;;7.57;2.10;;;9.10;99.90;;;;;;477009;247;27878;-78
2023/03/13 02:27:53;;;;;;;3.10;2.20;;;9.10;99.90;;;;;;477068;247;27612;-78
2023/03/13 02:29:54;;;;;;;5.80;1.87;;;9.10;99.90;;;;;;477057;247;27925;-78
2023/03/13 02:31:55;;;;;;;10.33;2.80;;;9.10;99.90;;;;;;477008;247;27795;-79
2023/03/13 02:33:56;;;;;;;5.10;1.90;;;9.10;99.90;;;;;;476922;247;28315;-78
2023/03/13 02:35:58;;;;;;;4.13;2.70;;;9.10;99.90;;;;;;476965;249;28316;-78
2023/03/13 02:37:59;;;;;;;5.33;2.13;;;9.10;99.90;;;;;;477012;249;28180;-79
2023/03/13 02:40:00;;;;;;;5.20;2.60;;;9.10;99.90;;;;;;476862;249;28215;-79
2023/03/13 02:42:01;;;;;;;4.33;2.17;;;9.10;99.90;;;;;;477015;247;28026;-78
2023/03/13 02:44:04;;;;;;;6.33;2.33;;;9.10;99.90;;;;;;477036;247;27506;-79
2023/03/13 02:46:04;;;;;;;7.47;2.30;;;9.10;99.90;;;;;;476739;249;27891;-79
2023/03/13 02:48:05;;;;;;;1.90;1.60;;;9.10;99.90;;;;;;477049;247;27572;-78
2023/03/13 02:50:06;;;;;;;1.73;1.63;;;9.10;99.90;;;;;;477066;247;27710;-78
2023/03/13 02:52:08;;;;;;;2.63;2.10;;;9.10;99.90;;;;;;477023;247;27833;-78
2023/03/13 02:54:09;;;;;;;3.97;1.83;;;9.10;99.90;;;;;;477020;247;27741;-78
2023/03/13 02:56:10;;;;;;;3.70;1.90;;;9.10;99.90;;;;;;476978;247;28046;-78
2023/03/13 02:58:11;;;;;;;4.33;1.67;;;9.10;99.90;;;;;;477044;247;28178;-78
2023/03/13 03:00:15;;;;;;;2.73;1.63;;;9.10;99.90;;;;;;476826;249;27778;-78
2023/03/13 03:02:14;;;;;;;6.70;1.70;;;9.10;99.90;;;;;;476677;249;27846;-78
2023/03/13 03:04:15;;;;;;;2.40;1.57;;;9.10;99.90;;;;;;476962;247;27913;-77
2023/03/13 03:06:16;;;;;;;3.47;1.97;;;9.10;99.90;;;;;;476894;249;27937;-78
2023/03/13 03:08:18;;;;;;;1.63;1.53;;;9.10;99.90;;;;;;476993;247;27755;-77
2023/03/13 03:10:19;;;;;;;1.80;1.40;;;9.10;99.90;;;;;;477021;247;28228;-78
2023/03/13 03:12:20;;;;;;;1.90;1.63;;;9.20;99.90;;;;;;477041;247;28372;-79
2023/03/13 03:14:21;;;;;;;2.63;1.70;;;9.20;99.90;;;;;;476975;247;27997;-79
2023/03/13 03:16:23;;;;;;;3.17;1.43;;;9.20;99.90;;;;;;476939;249;28174;-78
2023/03/13 03:18:24;;;;;;;1.67;1.50;;;9.20;99.90;;;;;;476941;249;28806;-79
2023/03/13 03:20:25;;;;;;;3.80;1.40;;;9.20;99.90;;;;;;477037;247;27904;-78
2023/03/13 03:22:26;;;;;;;4.50;2.03;;;9.20;99.90;;;;;;477006;247;27342;-78
2023/03/13 03:24:28;;;;;;;3.73;1.43;;;9.20;99.90;;;;;;477027;247;27522;-78
2023/03/13 03:26:29;;;;;;;1.67;1.57;;;9.20;99.90;;;;;;476989;247;27359;-78
2023/03/13 03:28:30;;;;;;;3.80;1.83;;;9.20;99.90;;;;;;477042;247;27685;-79
2023/03/13 03:30:31;;;;;;;3.03;1.57;;;9.20;99.90;;;;;;477027;247;27775;-78
2023/03/13 03:32:33;;;;;;;2.30;1.60;;;9.20;99.90;;;;;;477024;247;27853;-78
2023/03/13 03:34:34;;;;;;;1.60;1.50;;;9.20;99.90;;;;;;477014;247;27545;-78
2023/03/13 03:36:35;;;;;;;4.63;1.87;;;9.20;99.90;;;;;;477051;247;27899;-79
2023/03/13 03:38:38;;;;;;;1.83;1.63;;;9.20;99.90;;;;;;477047;247;27800;-79
2023/03/13 03:40:38;;;;;;;2.10;1.80;;;9.20;99.90;;;;;;476835;249;27859;-78
2023/03/13 03:42:39;;;;;;;3.50;1.93;;;9.20;99.90;;;;;;477012;247;27896;-78
2023/03/13 03:44:41;;;;;;;2.60;2.20;;;9.20;99.90;;;;;;477018;247;27422;-77
2023/03/13 03:46:41;;;;;;;4.67;2.60;;;9.20;99.90;;;;;;476932;249;27940;-78
2023/03/13 03:48:43;;;;;;;4.10;2.50;;;9.20;99.90;;;;;;477073;247;27851;-78
2023/03/13 03:50:44;;;;;;;6.17;3.00;;;9.20;99.90;;;;;;477041;247;28306;-77
2023/03/13 03:52:45;;;;;;;6.80;3.20;;;9.20;99.90;;;;;;477050;247;28174;-78
2023/03/13 03:54:46;;;;;;;7.47;3.17;;;9.20;99.90;;;;;;476996;247;29316;-78
2023/03/13 03:56:48;;;;;;;4.87;2.80;;;9.20;99.90;;;;;;477046;247;28332;-79
2023/03/13 03:58:49;;;;;;;5.40;3.33;;;9.20;99.90;;;;;;477059;247;28041;-78
2023/03/13 04:00:50;;;;;;;4.90;3.57;;;9.20;99.90;;;;;;477008;247;27639;-78
2023/03/13 04:02:51;;;;;;;6.90;3.73;;;9.20;99.90;;;;;;476941;249;27726;-78
2023/03/13 04:04:53;;;;;;;8.30;3.07;;;9.20;99.90;;;;;;477035;247;27940;-78
2023/03/13 04:06:54;;;;;;;5.37;3.80;;;9.20;99.90;;;;;;476986;247;27585;-78
2023/03/13 04:08:55;;;;;;;4.83;3.70;;;9.20;99.90;;;;;;476977;247;27801;-79
2023/03/13 04:10:56;;;;;;;9.20;4.00;;;9.20;99.90;;;;;;477052;247;27883;-79
2023/03/13 04:12:58;;;;;;;10.70;3.90;;;9.20;99.90;;;;;;476971;249;27628;-79
2023/03/13 04:14:59;;;;;;;3.60;3.23;;;9.20;99.90;;;;;;477003;249;27611;-78
2023/03/13 04:17:00;;;;;;;8.30;3.80;;;9.20;99.90;;;;;;477090;247;27882;-78
2023/03/13 04:19:01;;;;;;;6.93;3.80;;;9.20;99.90;;;;;;477044;247;27501;-78
2023/03/13 04:21:03;;;;;;;7.80;3.87;;;9.20;99.90;;;;;;477042;247;27839;-79
2023/03/13 04:23:04;;;;;;;8.67;3.80;;;9.30;99.90;;;;;;476935;249;27902;-78
2023/03/13 04:25:05;;;;;;;6.83;4.00;;;9.30;99.90;;;;;;477051;247;28357;-79
2023/03/13 04:27:06;;;;;;;11.87;4.53;;;9.30;99.90;;;;;;477000;247;28202;-78
2023/03/13 04:29:08;;;;;;;8.00;4.20;;;9.30;99.90;;;;;;477087;247;28400;-79
2023/03/13 04:31:09;;;;;;;4.97;3.80;;;9.30;99.90;;;;;;477032;247;27911;-78
2023/03/13 04:33:10;;;;;;;6.13;3.63;;;9.30;99.90;;;;;;477044;247;28385;-79
2023/03/13 04:35:11;;;;;;;5.57;3.70;;;9.30;99.90;;;;;;477068;247;27909;-78
2023/03/13 04:37:13;;;;;;;7.53;3.60;;;9.30;99.90;;;;;;476875;249;27411;-78
2023/03/13 04:39:14;;;;;;;6.63;3.23;;;9.30;99.90;;;;;;477055;247;27822;-78
2023/03/13 04:41:15;;;;;;;7.00;3.80;;;9.30;99.90;;;;;;477011;247;27795;-78
2023/03/13 04:43:16;;;;;;;4.57;3.43;;;9.30;99.90;;;;;;477026;247;27840;-78
2023/03/13 04:45:18;;;;;;;5.23;3.43;;;9.30;99.90;;;;;;477016;247;27793;-77
2023/03/13 04:47:19;;;;;;;5.13;3.47;;;9.30;99.90;;;;;;477057;247;27824;-79
2023/03/13 04:49:20;;;;;;;6.20;2.90;;;9.40;99.90;;;;;;477054;247;27892;-78
2023/03/13 04:51:21;;;;;;;5.27;3.97;;;9.40;99.90;;;;;;477048;247;27358;-78
2023/03/13 04:53:23;;;;;;;3.10;2.80;;;9.40;99.90;;;;;;477047;247;27936;-78
2023/03/13 04:55:24;;;;;;;6.33;3.80;;;9.40;99.90;;;;;;476956;247;27824;-78
2023/03/13 04:57:25;;;;;;;8.33;3.40;;;9.40;99.90;;;;;;477056;247;27780;-78
2023/03/13 04:59:26;;;;;;;7.07;3.07;;;9.40;99.90;;;;;;477008;247;27930;-78
2023/03/13 05:01:28;;;;;;;8.33;3.40;;;9.40;99.90;;;;;;477039;247;27998;-78
2023/03/13 05:03:29;;;;;;;7.20;3.40;;;9.50;99.90;;;;;;477020;247;28185;-78
2023/03/13 05:05:30;;;;;;;4.80;3.00;;;9.50;99.90;;;;;;477047;247;28554;-78
2023/03/13 05:07:31;;;;;;;4.43;3.10;;;9.50;99.90;;;;;;477079;247;28121;-77
2023/03/13 05:09:33;;;;;;;4.87;3.43;;;9.50;99.90;;;;;;477068;247;28292;-78
2023/03/13 05:11:34;;;;;;;4.30;3.07;;;9.50;99.90;;;;;;477032;247;28334;-78
2023/03/13 05:13:35;;;;;;;4.63;3.07;;;9.50;99.90;;;;;;477024;247;27827;-78
2023/03/13 05:15:36;;;;;;;8.20;3.20;;;9.50;99.90;;;;;;477038;247;27821;-78
2023/03/13 05:17:38;;;;;;;3.50;2.83;;;9.50;99.90;;;;;;477058;247;27868;-79
2023/03/13 05:19:39;;;;;;;8.23;3.53;;;9.50;99.90;;;;;;477015;249;27954;-79
2023/03/13 05:21:40;;;;;;;4.13;2.70;;;9.50;99.90;;;;;;477027;247;27862;-78
2023/03/13 05:23:41;;;;;;;2.93;2.60;;;9.50;99.90;;;;;;477033;247;27610;-78
2023/03/13 05:25:43;;;;;;;2.43;2.23;;;9.50;99.90;;;;;;477057;247;28137;-78
2023/03/13 05:27:44;;;;;;;3.80;2.63;;;9.50;99.90;;;;;;477057;247;27645;-77
2023/03/13 05:29:45;;;;;;;2.30;2.10;;;9.50;99.90;;;;;;477053;247;28297;-78
2023/03/13 05:31:46;;;;;;;3.73;2.13;;;9.50;99.90;;;;;;477027;247;27923;-78
2023/03/13 05:33:48;;;;;;;2.70;2.00;;;9.50;99.90;;;;;;476997;247;27673;-78
2023/03/13 05:35:49;;;;;;;3.13;2.00;;;9.50;99.90;;;;;;477054;247;27782;-78
2023/03/13 05:37:50;;;;;;;6.40;2.60;;;9.50;99.90;;;;;;477053;247;27785;-78
2023/03/13 05:39:51;;;;;;;2.23;2.00;;;9.50;99.90;;;;;;477030;247;27981;-79
2023/03/13 05:41:53;;;;;;;3.50;2.33;;;9.50;99.90;;;;;;477028;247;27998;-79
2023/03/13 05:43:54;;;;;;;3.63;2.00;;;9.50;99.90;;;;;;477038;247;28018;-78
2023/03/13 05:45:55;;;;;;;2.27;2.07;;;9.60;99.90;;;;;;477043;247;28646;-78
2023/03/13 05:47:57;;;;;;;2.93;2.33;;;9.60;99.90;;;;;;477062;247;28506;-78
2023/03/13 05:49:58;;;;;;;1.93;1.83;;;9.60;99.90;;;;;;476942;249;27868;-79
2023/03/13 05:51:59;;;;;;;2.87;2.23;;;9.60;99.90;;;;;;477058;247;27753;-78
2023/03/13 05:54:00;;;;;;;2.70;2.50;;;9.60;99.90;;;;;;477020;247;27851;-79
2023/03/13 05:56:01;;;;;;;4.70;2.40;;;9.60;99.90;;;;;;477054;247;27940;-78
2023/03/13 05:58:03;;;;;;;4.57;2.63;;;9.60;99.90;;;;;;477051;247;27762;-78
2023/03/13 06:00:04;;;;;;;6.90;2.73;;;9.60;99.90;;;;;;477074;247;27872;-78
2023/03/13 06:02:05;;;;;;;4.27;2.57;;;9.60;99.90;;;;;;477046;246;27875;-78
2023/03/13 06:04:06;;;;;;;2.40;2.20;;;9.70;99.90;;;;;;477021;247;27824;-78
2023/03/13 06:06:08;;;;;;;2.70;2.27;;;9.70;99.90;;;;;;477060;247;27754;-78
2023/03/13 06:08:09;;;;;;;3.07;2.20;;;9.70;99.90;;;;;;477077;247;27797;-78
2023/03/13 06:10:10;;;;;;;3.40;3.07;;;9.70;99.90;;;;;;477081;247;27809;-79
2023/03/13 06:12:11;;;;;;;2.70;2.33;;;9.70;99.90;;;;;;477057;247;27625;-78
2023/03/13 06:14:13;;;;;;;2.63;2.43;;;9.70;99.90;;;;;;477042;247;27803;-79
2023/03/13 06:16:14;;;;;;;3.63;2.33;;;9.80;99.90;;;;;;477052;247;27829;-79
2023/03/13 06:18:15;;;;;;;3.90;2.03;;;9.80;99.90;;;;;;477038;247;28126;-78
2023/03/13 06:20:16;;;;;;;3.80;2.87;;;9.80;99.90;;;;;;477062;247;28436;-78
2023/03/13 06:22:18;;;;;;;5.10;2.30;;;9.70;99.90;;;;;;477063;247;28226;-78
2023/03/13 06:24:19;;;;;;;3.30;2.60;;;9.80;99.90;;;;;;477004;247;28182;-78
2023/03/13 06:26:20;;;;;;;3.83;2.70;;;9.80;99.90;;;;;;476998;247;28160;-79
2023/03/13 06:28:21;;;;;;;3.43;2.97;;;9.80;99.90;;;;;;477009;249;27759;-79
2023/03/13 06:30:23;;;;;;;3.23;2.57;;;9.80;99.90;;;;;;477052;247;27921;-78
2023/03/13 06:32:24;;;;;;;5.70;3.10;;;9.80;99.90;;;;;;477044;247;27402;-79
2023/03/13 06:34:25;;;;;;;4.67;2.83;;;9.80;99.90;;;;;;477062;247;28014;-78
2023/03/13 06:36:26;;;;;;;4.87;2.67;;;9.90;99.90;;;;;;477014;247;27474;-78
2023/03/13 06:38:28;;;;;;;2.40;2.20;;;9.90;99.90;;;;;;476971;249;27800;-79
2023/03/13 06:40:29;;;;;;;3.20;2.90;;;9.90;99.90;;;;;;477060;247;27743;-79
2023/03/13 06:42:30;;;;;;;2.90;2.70;;;9.90;99.90;;;;;;476996;247;27855;-78
2023/03/13 06:44:31;;;;;;;2.50;2.30;;;9.90;99.90;;;;;;477024;247;27805;-78
2023/03/13 06:46:33;;;;;;;3.50;2.70;;;9.90;99.90;;;;;;477014;247;27926;-78
2023/03/13 06:48:34;;;;;;;2.97;2.77;;;9.90;99.90;;;;;;476943;247;27956;-79
2023/03/13 06:50:35;;;;;;;3.50;3.03;;;10.00;99.90;;;;;;477002;247;28066;-78
2023/03/13 06:52:36;;;;;;;3.00;2.70;;;10.00;99.90;;;;;;477020;247;27808;-78
2023/03/13 06:54:38;;;;;;;3.50;2.50;;;10.00;99.90;;;;;;477032;247;28276;-78
2023/03/13 06:56:39;;;;;;;5.03;2.60;;;10.10;99.90;;;;;;476983;247;28109;-79
2023/03/13 06:58:40;;;;;;;3.67;2.80;;;10.10;99.90;;;;;;476995;247;28330;-79
2023/03/13 07:00:43;;;;;;;5.10;2.47;;;10.10;99.90;;;;;;477061;247;27680;-78
2023/03/13 07:02:43;;;;;;;4.57;2.10;;;10.10;99.90;;;;;;476985;249;27862;-78
2023/03/13 07:04:45;;;;;;;3.33;2.30;;;10.10;99.90;;;;;;477041;247;27878;-78
2023/03/13 07:06:45;;;;;;;4.43;2.30;;;10.20;99.90;;;;;;476960;247;27656;-78
2023/03/13 07:08:46;;;;;;;2.33;2.13;;;10.20;99.90;;;;;;477005;247;27593;-78
2023/03/13 07:10:51;;;;;;;2.30;2.10;;;10.20;99.90;;;;;;476967;247;27916;-78
2023/03/13 07:12:49;;;;;;;2.33;2.13;;;10.20;99.90;;;;;;476889;249;27664;-78
2023/03/13 07:14:51;;;;;;;7.10;2.83;;;10.20;99.90;;;;;;476817;249;28366;-77
2023/03/13 07:16:52;;;;;;;3.50;2.30;;;10.20;99.90;;;;;;476942;249;28438;-77
2023/03/13 07:18:53;;;;;;;4.03;2.47;;;10.20;99.90;;;;;;477027;247;27876;-78
2023/03/13 07:20:54;;;;;;;2.43;2.23;;;10.30;99.90;;;;;;477042;247;27785;-79
2023/03/13 07:22:56;;;;;;;4.07;2.30;;;10.30;99.90;;;;;;477026;247;27951;-78
2023/03/13 07:24:58;;;;;;;5.90;2.33;;;10.30;99.90;;;;;;477035;247;27827;-78
2023/03/13 07:26:59;;;;;;;4.07;2.60;;;10.30;99.90;;;;;;477031;247;28319;-79
2023/03/13 07:29:00;;;;;;;2.33;2.10;;;10.20;99.90;;;;;;476996;249;28389;-78
2023/03/13 07:31:01;;;;;;;2.57;2.37;;;10.20;99.90;;;;;;477028;247;27890;-77
2023/03/13 07:33:03;;;;;;;3.30;3.00;;;10.30;99.90;;;;;;476770;249;27849;-78
2023/03/13 07:35:04;;;;;;;3.40;2.83;;;10.30;99.90;;;;;;477008;247;27673;-78
2023/03/13 07:37:05;;;;;;;5.23;3.23;;;10.30;99.90;;;;;;477071;247;27989;-78
2023/03/13 07:39:06;;;;;;;5.80;3.30;;;10.30;99.90;;;;;;477044;249;27806;-78
2023/03/13 07:41:08;;;;;;;8.33;2.90;;;10.30;99.90;;;;;;477056;247;27966;-78
2023/03/13 07:43:09;;;;;;;4.80;2.73;;;10.30;99.90;;;;;;477009;247;27768;-78
2023/03/13 07:45:10;;;;;;;5.53;2.93;;;10.30;99.90;;;;;;476914;247;27767;-78
2023/03/13 07:47:11;;;;;;;4.33;3.23;;;10.30;99.90;;;;;;477079;247;27804;-78
2023/03/13 07:49:13;;;;;;;5.13;3.50;;;10.40;99.90;;;;;;477066;247;28361;-78
2023/03/13 07:51:14;;;;;;;5.03;3.13;;;10.30;99.90;;;;;;477003;249;28338;-78
2023/03/13 07:53:19;;;;;;;9.63;3.83;;;10.30;99.90;;;;;;477037;247;28441;-78
2023/03/13 07:55:16;;;;;;;4.57;3.23;;;10.30;99.90;;;;;;476716;249;28019;-78
2023/03/13 07:57:18;;;;;;;5.20;3.20;;;10.40;99.90;;;;;;476997;247;27908;-79
2023/03/13 07:59:19;;;;;;;4.80;3.30;;;10.40;99.90;;;;;;476970;249;28063;-79
2023/03/13 08:01:20;;;;;;;4.00;3.40;;;10.40;99.90;;;;;;477042;247;27645;-78
2023/03/13 08:03:22;;;;;;;3.00;2.80;;;10.40;99.90;;;;;;477010;247;27903;-78
2023/03/13 08:05:23;;;;;;;5.27;3.17;;;10.40;99.90;;;;;;477009;247;28203;-78
2023/03/13 08:07:24;;;;;;;5.60;2.90;;;10.40;99.90;;;;;;477055;247;28397;-79
2023/03/13 08:09:25;;;;;;;4.60;3.50;;;10.40;99.90;;;;;;477056;247;28328;-78
2023/03/13 08:11:26;;;;;;;7.73;3.13;;;10.40;99.90;;;;;;477047;249;28418;-78
2023/03/13 08:13:28;;;;;;;5.17;3.23;;;10.40;99.90;;;;;;477036;247;27891;-79
2023/03/13 08:15:29;;;;;;;3.90;3.60;;;10.40;99.90;;;;;;477012;247;27867;-78
2023/03/13 08:17:30;;;;;;;4.47;3.27;;;10.40;99.90;;;;;;476997;247;27828;-78
2023/03/13 08:19:31;;;;;;;4.17;2.83;;;10.40;99.90;;;;;;477053;247;27914;-79
2023/03/13 08:21:33;;;;;;;4.83;3.83;;;10.40;99.90;;;;;;477019;247;27775;-78
2023/03/13 08:23:34;;;;;;;9.90;3.73;;;10.40;99.90;;;;;;477036;247;27921;-78
2023/03/13 08:25:35;;;;;;;6.10;3.37;;;10.40;99.90;;;;;;476995;247;27776;-78
2023/03/13 08:27:37;;;;;;;4.30;3.57;;;10.40;99.90;;;;;;477040;247;28434;-78
2023/03/13 08:29:38;;;;;;;4.50;3.30;;;10.50;99.90;;;;;;477041;247;28473;-78
2023/03/13 08:31:39;;;;;;;3.80;3.37;;;10.40;99.90;;;;;;477048;247;27776;-78
2023/03/13 08:33:40;;;;;;;4.43;3.10;;;10.50;99.90;;;;;;476983;247;27896;-78
2023/03/13 08:35:42;;;;;;;4.57;4.10;;;10.50;99.90;;;;;;476995;247;27867;-78
2023/03/13 08:37:44;;;;;;;4.33;3.33;;;10.50;99.90;;;;;;477020;247;27920;-78
2023/03/13 08:39:47;;;;;;;4.70;4.13;;;10.70;99.90;;;;;;476999;247;28148;-78
2023/03/13 08:41:46;;;;;;;4.63;3.50;;;10.90;99.90;;;;;;476952;249;28129;-79
2023/03/13 08:43:47;;;;;;;9.87;4.20;;;11.00;99.90;;;;;;477030;247;28517;-78
2023/03/13 08:45:50;;;;;;;4.83;3.20;;;;;;;;;;477019;247;28644;-78
2023/03/13 08:47:52;;;;;;;6.40;3.63;;;11.10;99.90;;;;;;476996;247;27078;-78
2023/03/13 08:49:54;;;;;;;4.57;3.53;;;11.20;99.90;;;;;;477070;247;28450;-79
2023/03/13 08:51:55;;;;;;;6.10;3.03;;;11.20;99.90;;;;;;476966;249;28114;-78
2023/03/13 08:53:55;;;;;;;5.60;3.10;;;11.30;99.90;;;;;;476978;249;28272;-78
2023/03/13 08:55:56;;;;;;;4.47;2.83;;;11.30;99.90;;;;;;477035;247;28624;-78
2023/03/13 08:57:57;;;;;;;8.13;3.10;;;11.30;99.90;;;;;;477058;247;28618;-78
2023/03/13 08:59:59;;;;;;;5.20;3.23;;;11.20;99.90;;;;;;477078;247;28756;-78
2023/03/13 09:02:01;;;;;;;6.30;3.07;;;11.20;99.90;;;;;;477091;247;27860;-79
2023/03/13 09:04:01;;;;;;;6.27;2.97;;;11.20;99.90;;;;;;476982;249;28113;-79
2023/03/13 09:06:02;;;;;;;5.40;3.57;;;11.10;99.90;;;;;;477113;247;28224;-78
2023/03/13 09:08:04;;;;;;;5.63;3.23;;;11.10;99.90;;;;;;477041;247;28244;-79
2023/03/13 09:10:05;;;;;;;5.10;3.27;;;11.10;99.90;;;;;;477040;247;28174;-78
2023/03/13 09:12:06;;;;;;;6.07;3.70;;;11.10;99.90;;;;;;476999;249;28201;-79
2023/03/13 09:14:07;;;;;;;7.17;2.97;;;11.10;99.90;;;;;;477054;247;28137;-79
2023/03/13 09:16:09;;;;;;;5.03;3.00;;;11.20;99.90;;;;;;477026;247;28163;-78
2023/03/13 09:18:10;;;;;;;3.33;2.93;;;11.30;99.90;;;;;;477025;247;28239;-78
2023/03/13 09:20:11;;;;;;;4.73;2.80;;;11.30;99.90;;;;;;476995;247;29232;-78
2023/03/13 09:22:14;;;;;;;3.43;3.10;;;11.30;99.90;;;;;;476890;249;28664;-79
2023/03/13 09:24:14;;;;;;;4.50;2.87;;;11.30;99.90;;;;;;476897;249;28754;-79
2023/03/13 09:26:15;;;;;;;4.10;2.70;;;11.20;99.90;;;;;;477067;247;28008;-78
2023/03/13 09:28:17;;;;;;;5.63;2.97;;;11.20;99.90;;;;;;477042;247;28611;-78
2023/03/13 09:30:18;;;;;;;3.70;3.00;;;11.10;99.90;;;;;;477083;247;28739;-78
2023/03/13 09:32:19;;;;;;;3.87;2.70;;;11.10;99.90;;;;;;477079;247;28078;-78
2023/03/13 09:34:22;;;;;;;4.60;2.80;;;11.10;99.90;;;;;;477043;247;28018;-78
2023/03/13 09:36:22;;;;;;;4.83;2.80;;;11.10;99.90;;;;;;476855;249;28057;-78
2023/03/13 09:38:23;;;;;;;3.20;2.70;;;11.10;99.90;;;;;;477000;247;28064;-79
2023/03/13 09:40:24;;;;;;;5.27;2.80;;;11.10;99.90;;;;;;477061;247;28384;-79
2023/03/13 09:42:25;;;;;;;4.03;2.77;;;11.20;99.90;;;;;;477056;247;28202;-79
2023/03/13 09:44:27;;;;;;;5.40;2.70;;;11.30;99.90;;;;;;477061;247;28118;-78
2023/03/13 09:46:28;;;;;;;8.00;3.00;;;11.40;99.90;;;;;;477020;247;28144;-78
2023/03/13 09:48:29;;;;;;;6.00;2.53;;;11.40;99.90;;;;;;476949;247;28663;-78
2023/03/13 09:50:32;;;;;;;2.90;2.60;;;;;;;;;;477032;247;28999;-78
2023/03/13 09:52:33;;;;;;;3.07;2.77;;;11.40;99.90;;;;;;477031;247;26977;-78
2023/03/13 09:54:34;;;;;;;2.70;2.47;;;11.40;99.90;;;;;;476994;247;27881;-78
2023/03/13 09:56:35;;;;;;;6.13;2.80;;;11.50;99.90;;;;;;476991;247;28017;-78
2023/03/13 09:58:37;;;;;;;5.77;2.80;;;11.50;99.90;;;;;;477010;247;28101;-79
2023/03/13 10:00:38;;;;;;;5.90;2.70;;;11.50;99.90;;;;;;477047;247;28602;-78
2023/03/13 10:02:39;;;;;;;3.57;2.63;;;11.60;99.90;;;;;;476948;249;28662;-79
2023/03/13 10:04:40;;;;;;;2.30;2.10;;;11.60;99.90;;;;;;477049;247;28557;-78
2023/03/13 10:06:42;;;;;;;2.70;2.47;;;11.70;99.90;;;;;;477022;247;28107;-79
2023/03/13 10:08:43;;;;;;;2.40;2.20;;;11.70;99.90;;;;;;477030;247;27982;-79
2023/03/13 10:10:44;;;;;;;2.87;2.37;;;11.80;99.90;;;;;;477069;247;27953;-78
2023/03/13 10:12:45;;;;;;;4.77;2.63;;;12.00;99.90;;;;;;477078;247;28251;-79
2023/03/13 10:14:47;;;;;;;5.93;2.20;;;12.10;99.90;;;;;;477062;247;28668;-79
2023/03/13 10:16:48;;;;;;;2.43;2.10;;;12.20;99.90;;;;;;477071;247;28230;-80
2023/03/13 10:18:49;;;;;;;2.67;2.10;;;12.10;99.90;;;;;;477038;247;28511;-79
2023/03/13 10:20:50;;;;;;;3.73;2.27;;;12.20;99.90;;;;;;477046;247;28140;-79
2023/03/13 10:22:52;;;;;;;3.77;2.63;;;12.20;99.90;;;;;;477056;247;29122;-79
2023/03/13 10:24:53;;;;;;;2.33;2.00;;;12.30;99.90;;;;;;477054;247;28565;-79
2023/03/13 10:26:54;;;;;;;3.23;2.30;;;12.40;99.90;;;;;;476865;249;28728;-79
2023/03/13 10:28:55;;;;;;;2.60;2.13;;;12.60;99.90;;;;;;477035;247;28629;-79
2023/03/13 10:30:57;;;;;;;2.20;1.93;;;12.70;99.90;;;;;;477073;247;28005;-80
2023/03/13 10:32:58;;;;;;;2.43;2.23;;;12.70;99.90;;;;;;477039;247;28020;-80
2023/03/13 10:34:59;;;;;;;1.80;1.70;;;12.80;99.90;;;;;;477054;247;27980;-79